Sunray, TX (79086)

1:42 AM CDT on August 03, 2015 (GMT -0500)
Moore County | | Change Station
CLOSE
Current Station
Airport
Location: Dumas,
Elevation: 3704 ft
Nearby Weather Stations

Elev 3704 ft 35.86 °N, 102.01 °W | Updated 7 minutes ago

Overcast
Overcast
65 °F
Feels Like 65 °F
N
8
Wind Variable Wind from South

Today
High -- | Low -- °F
--% Chance of Precip.
Yesterday
High -- | Low -- °F
Precip. -- in
6:56 AM 8:50 PM
Waning Gibbous, 89% visible
Pressure 30.04 in
Visibility 10.0 miles
Clouds Scattered Clouds 800 ft
Scattered Clouds 1500 ft
Scattered Clouds 7500 ft
Dew Point 62 °F
Humidity 90%
Rainfall 0.05 in
Snow Depth Not available.
UV 0 out of 12
Pollen 4.60 out of 12
Air Quality Not available.
Flu Activity Not available.
METAR KDUX 030635Z AUTO 17007KT 10SM SCT008 SCT015 SCT075 18/17 A3004 RMK AO2 T01830166

More Conditions Fewer Conditions

Pressure 30.04 in
Visibility 10.0 miles
Clouds Scattered Clouds 800 ft
Scattered Clouds 1500 ft
Scattered Clouds 7500 ft
Dew Point 62 °F
Humidity 90%
Rainfall 0.05 in
Snow Depth Not available.
UV 0 out of 12
Pollen 4.60 out of 12
Air Quality Not available.
Flu Activity Not available.
METAR KDUX 030635Z AUTO 17007KT 10SM SCT008 SCT015 SCT075 18/17 A3004 RMK AO2 T01830166

More Conditions Fewer Conditions

Nowcast | as of 11:26 PM CDT on August 2, 2015

Scattered showers and thunderstorms will continue to drift southeast across the Texas Panhandle. Some of the stronger storms will be capable of producing very heavy rain...hail...and strong gusty winds to around 50 miles an hour. Flash flooding will be possible early this morning due to the heavy rainfall.

×

10-Day Weather Forecast

×

Almanac

Astronomy

Aug. 03, 2015 Rise Set
Actual Time
Civil Twilight
Nautical Twilight
Astronomical Twilight
Moon
Length of Visible Light
Length of Day
Tomorrow will be .
, % of the Moon is Illuminated

Today's Extremes

State Highs State Lows

Community

WunderPhotos

Upload Photos

1,843,595 photos uploaded!

WunderBlogs® & News

Nearby

Air Quality

  Air Quality AQ Index Pollutant
Not available.

Snow Depth

Station Depth Elevation

Earthquake Activity

City Distance Mag. Time & Date
Minimum magnitude displayed is 2.5.

Coastal Water Temperatures

Place Temperature

Stations

Nearby Weather Stations

Station Location Temp. Windchill Dew Point Humidity Wind Precip. Elev Updated Type